GLO1118 SBGR-SBCT
Flight info
| Callsign | GLO1118 |
|---|---|
| Flight time | 0h 52m |
| Altitude | 26000 |
| Route | SOVSI UZ85 RAXIT |
| Aircraft | B737/M-SDE2E3FGHIRWXY/LB1 |
Departure
| Time | 2026-05-01 14:27 |
|---|---|
| Airport | São Paulo/Guarulhos–Governor André Franco Montoro International Airport (SBGR) |
Arrival
| Time | 2026-05-01 15:19 |
|---|---|
| Airport | Curitiba-Afonso Pena International Airport (SBCT) |
| Time | Latitude | Longitude | Altitude | Speed | Heading |
|---|---|---|---|---|---|
| 2026-05-01 14:11 | -23.42772 | -46.48354 | 2448 ft | 0 kts | 84° |
| 2026-05-01 14:18 | -23.42772 | -46.48356 | 2448 ft | 2 kts | 83° |
| 2026-05-01 14:19 | -23.42776 | -46.48377 | 2448 ft | 2 kts | 88° |
| 2026-05-01 14:19 | -23.42777 | -46.48393 | 2448 ft | 2 kts | 83° |
| 2026-05-01 14:19 | -23.42778 | -46.48409 | 2447 ft | 1 kts | 104° |
| 2026-05-01 14:19 | -23.42770 | -46.48421 | 2447 ft | 2 kts | 153° |
| 2026-05-01 14:20 | -23.42761 | -46.48424 | 2447 ft | 1 kts | 182° |
| 2026-05-01 14:20 | -23.42755 | -46.48424 | 2447 ft | 0 kts | 180° |
| 2026-05-01 14:23 | -23.42775 | -46.48426 | 2447 ft | 4 kts | 186° |
| 2026-05-01 14:23 | -23.42807 | -46.48432 | 2447 ft | 5 kts | 198° |
| 2026-05-01 14:23 | -23.42844 | -46.48446 | 2447 ft | 5 kts | 190° |
| 2026-05-01 14:24 | -23.42884 | -46.48450 | 2447 ft | 6 kts | 180° |
| 2026-05-01 14:24 | -23.42944 | -46.48451 | 2447 ft | 10 kts | 181° |
| 2026-05-01 14:24 | -23.43020 | -46.48449 | 2447 ft | 10 kts | 173° |
| 2026-05-01 14:24 | -23.43091 | -46.48431 | 2448 ft | 10 kts | 164° |
| 2026-05-01 14:25 | -23.43155 | -46.48411 | 2449 ft | 9 kts | 163° |
| 2026-05-01 14:25 | -23.43221 | -46.48389 | 2450 ft | 9 kts | 163° |
| 2026-05-01 14:25 | -23.43302 | -46.48364 | 2452 ft | 12 kts | 163° |
| 2026-05-01 14:25 | -23.43385 | -46.48337 | 2453 ft | 11 kts | 149° |
| 2026-05-01 14:26 | -23.43403 | -46.48245 | 2455 ft | 20 kts | 71° |
| 2026-05-01 14:26 | -23.43081 | -46.47055 | 2453 ft | 137 kts | 74° |
| 2026-05-01 14:26 | -23.42778 | -46.45921 | 2654 ft | 162 kts | 75° |
| 2026-05-01 14:27 | -23.42519 | -46.44810 | 3343 ft | 154 kts | 73° |
| 2026-05-01 14:27 | -23.42131 | -46.43710 | 3873 ft | 158 kts | 66° |
| 2026-05-01 14:27 | -23.41733 | -46.42562 | 4294 ft | 171 kts | 70° |
| 2026-05-01 14:28 | -23.40993 | -46.39888 | 5254 ft | 197 kts | 77° |
| 2026-05-01 14:28 | -23.41169 | -46.38369 | 5663 ft | 220 kts | 115° |
| 2026-05-01 14:28 | -23.42326 | -46.37209 | 6072 ft | 243 kts | 156° |
| 2026-05-01 14:28 | -23.44068 | -46.37059 | 6532 ft | 260 kts | 196° |
| 2026-05-01 14:29 | -23.45606 | -46.38076 | 7016 ft | 270 kts | 231° |
| 2026-05-01 14:29 | -23.46622 | -46.39844 | 7562 ft | 280 kts | 245° |
| 2026-05-01 14:30 | -23.49664 | -46.45434 | 9928 ft | 292 kts | 236° |
| 2026-05-01 14:30 | -23.50845 | -46.47232 | 10676 ft | 298 kts | 236° |
| 2026-05-01 14:30 | -23.52089 | -46.49107 | 11175 ft | 314 kts | 235° |
| 2026-05-01 14:31 | -23.54683 | -46.53052 | 12589 ft | 326 kts | 235° |
| 2026-05-01 14:31 | -23.55999 | -46.55067 | 13343 ft | 330 kts | 235° |
| 2026-05-01 14:31 | -23.57331 | -46.57113 | 14114 ft | 334 kts | 236° |
| 2026-05-01 14:31 | -23.58664 | -46.59159 | 14907 ft | 337 kts | 236° |
| 2026-05-01 14:32 | -23.60025 | -46.61244 | 15700 ft | 340 kts | 236° |
| 2026-05-01 14:32 | -23.61396 | -46.63348 | 16518 ft | 342 kts | 236° |
| 2026-05-01 14:32 | -23.62781 | -46.65479 | 17292 ft | 345 kts | 237° |
| 2026-05-01 14:32 | -23.64108 | -46.67625 | 18039 ft | 347 kts | 239° |
| 2026-05-01 14:33 | -23.65411 | -46.69863 | 18733 ft | 351 kts | 240° |
| 2026-05-01 14:33 | -23.66707 | -46.72138 | 19405 ft | 355 kts | 240° |
| 2026-05-01 14:33 | -23.68018 | -46.74435 | 20102 ft | 359 kts | 240° |
| 2026-05-01 14:33 | -23.69333 | -46.76725 | 20755 ft | 363 kts | 240° |
| 2026-05-01 14:34 | -23.70691 | -46.79077 | 21402 ft | 367 kts | 240° |
| 2026-05-01 14:34 | -23.72066 | -46.81439 | 22045 ft | 370 kts | 240° |
| 2026-05-01 14:34 | -23.73459 | -46.83810 | 22676 ft | 373 kts | 240° |
| 2026-05-01 14:34 | -23.74845 | -46.86154 | 23555 ft | 368 kts | 240° |
| 2026-05-01 14:35 | -23.76223 | -46.88482 | 24513 ft | 361 kts | 240° |
| 2026-05-01 14:35 | -23.77566 | -46.90756 | 25311 ft | 357 kts | 240° |
| 2026-05-01 14:35 | -23.78886 | -46.92995 | 25955 ft | 356 kts | 240° |
| 2026-05-01 14:35 | -23.80237 | -46.95294 | 26228 ft | 360 kts | 240° |
| 2026-05-01 14:36 | -23.81580 | -46.97582 | 26234 ft | 358 kts | 240° |
| 2026-05-01 14:36 | -23.82923 | -46.99869 | 26232 ft | 355 kts | 240° |
| 2026-05-01 14:36 | -23.84261 | -47.02148 | 26233 ft | 354 kts | 240° |
| 2026-05-01 14:36 | -23.85587 | -47.04409 | 26234 ft | 354 kts | 240° |
| 2026-05-01 14:37 | -23.86899 | -47.06647 | 26234 ft | 354 kts | 240° |
| 2026-05-01 14:37 | -23.88228 | -47.08915 | 26234 ft | 354 kts | 240° |
| 2026-05-01 14:37 | -23.89565 | -47.11197 | 26233 ft | 353 kts | 240° |
| 2026-05-01 14:37 | -23.90889 | -47.13459 | 26227 ft | 355 kts | 240° |
| 2026-05-01 14:38 | -23.92227 | -47.15745 | 26226 ft | 355 kts | 240° |
| 2026-05-01 14:38 | -23.93547 | -47.18002 | 26224 ft | 354 kts | 240° |
| 2026-05-01 14:38 | -23.94876 | -47.20272 | 26224 ft | 354 kts | 240° |
| 2026-05-01 14:38 | -23.96205 | -47.22546 | 26222 ft | 354 kts | 240° |
| 2026-05-01 14:39 | -23.97522 | -47.24798 | 26218 ft | 353 kts | 240° |
| 2026-05-01 14:39 | -23.98845 | -47.27064 | 26214 ft | 354 kts | 240° |
| 2026-05-01 14:39 | -24.00171 | -47.29335 | 26217 ft | 353 kts | 240° |
| 2026-05-01 14:39 | -24.01481 | -47.31580 | 26216 ft | 352 kts | 241° |
| 2026-05-01 14:40 | -24.02795 | -47.33832 | 26216 ft | 353 kts | 240° |
| 2026-05-01 14:40 | -24.04119 | -47.36105 | 26215 ft | 354 kts | 241° |
| 2026-05-01 14:40 | -24.05442 | -47.38375 | 26212 ft | 353 kts | 240° |
| 2026-05-01 14:40 | -24.06767 | -47.40649 | 26209 ft | 353 kts | 240° |
| 2026-05-01 14:41 | -24.08082 | -47.42908 | 26208 ft | 353 kts | 240° |
| 2026-05-01 14:41 | -24.09444 | -47.45167 | 26206 ft | 354 kts | 238° |
| 2026-05-01 14:41 | -24.11000 | -47.47251 | 26206 ft | 358 kts | 228° |
| 2026-05-01 14:41 | -24.12929 | -47.49002 | 26202 ft | 362 kts | 220° |
| 2026-05-01 14:42 | -24.15029 | -47.50539 | 26195 ft | 363 kts | 216° |
| 2026-05-01 14:42 | -24.17182 | -47.51994 | 26189 ft | 363 kts | 215° |
| 2026-05-01 14:42 | -24.19345 | -47.53431 | 26183 ft | 364 kts | 215° |
| 2026-05-01 14:42 | -24.21503 | -47.54875 | 26176 ft | 364 kts | 216° |
| 2026-05-01 14:43 | -24.23646 | -47.56327 | 26169 ft | 363 kts | 216° |
| 2026-05-01 14:43 | -24.25805 | -47.57803 | 26162 ft | 363 kts | 216° |
| 2026-05-01 14:43 | -24.27945 | -47.59277 | 26158 ft | 363 kts | 216° |
| 2026-05-01 14:43 | -24.30076 | -47.60753 | 26155 ft | 363 kts | 217° |
| 2026-05-01 14:44 | -24.32204 | -47.62231 | 26153 ft | 363 kts | 217° |
| 2026-05-01 14:44 | -24.36463 | -47.65197 | 26149 ft | 362 kts | 217° |
| 2026-05-01 14:44 | -24.38587 | -47.66678 | 26145 ft | 361 kts | 217° |
| 2026-05-01 14:45 | -24.40711 | -47.68175 | 26142 ft | 361 kts | 219° |
| 2026-05-01 14:45 | -24.44606 | -47.71603 | 26140 ft | 356 kts | 226° |
| 2026-05-01 14:45 | -24.46450 | -47.73462 | 26138 ft | 357 kts | 227° |
| 2026-05-01 14:46 | -24.48257 | -47.75323 | 26138 ft | 356 kts | 228° |
| 2026-05-01 14:46 | -24.51863 | -47.79046 | 26137 ft | 357 kts | 228° |
| 2026-05-01 14:46 | -24.53666 | -47.80899 | 26135 ft | 358 kts | 227° |
| 2026-05-01 14:47 | -24.55486 | -47.82764 | 26133 ft | 357 kts | 227° |
| 2026-05-01 14:47 | -24.57312 | -47.84633 | 26131 ft | 356 kts | 227° |
| 2026-05-01 14:47 | -24.59123 | -47.86486 | 26130 ft | 356 kts | 227° |
| 2026-05-01 14:48 | -24.62764 | -47.90208 | 26131 ft | 354 kts | 227° |
| 2026-05-01 14:48 | -24.64555 | -47.92039 | 26130 ft | 353 kts | 227° |
| 2026-05-01 14:48 | -24.68159 | -47.95728 | 26129 ft | 353 kts | 227° |
| 2026-05-01 14:49 | -24.71769 | -47.99424 | 26125 ft | 354 kts | 227° |
| 2026-05-01 14:49 | -24.75370 | -48.03112 | 26129 ft | 353 kts | 228° |
| 2026-05-01 14:50 | -24.78423 | -48.06252 | 26131 ft | 374 kts | 228° |
| 2026-05-01 14:50 | -24.83064 | -48.11032 | 25607 ft | 402 kts | 227° |
| 2026-05-01 14:51 | -24.85097 | -48.13114 | 25108 ft | 398 kts | 227° |
| 2026-05-01 14:51 | -24.89110 | -48.17216 | 24089 ft | 387 kts | 227° |
| 2026-05-01 14:52 | -24.92992 | -48.21198 | 23091 ft | 385 kts | 227° |
| 2026-05-01 14:52 | -24.94965 | -48.23238 | 22578 ft | 388 kts | 228° |
| 2026-05-01 14:52 | -24.98351 | -48.27687 | 21568 ft | 375 kts | 239° |
| 2026-05-01 14:53 | -24.99695 | -48.30133 | 21065 ft | 369 kts | 244° |
| 2026-05-01 14:53 | -25.00885 | -48.32609 | 20558 ft | 365 kts | 246° |
| 2026-05-01 14:53 | -25.02017 | -48.35116 | 20049 ft | 361 kts | 246° |
| 2026-05-01 14:53 | -25.03103 | -48.37575 | 19545 ft | 357 kts | 247° |
| 2026-05-01 14:54 | -25.04184 | -48.40033 | 19039 ft | 354 kts | 247° |
| 2026-05-01 14:54 | -25.05239 | -48.42433 | 18538 ft | 350 kts | 246° |
| 2026-05-01 14:54 | -25.06297 | -48.44834 | 18207 ft | 348 kts | 246° |
| 2026-05-01 14:54 | -25.07382 | -48.47286 | 17914 ft | 356 kts | 246° |
| 2026-05-01 14:55 | -25.08460 | -48.49709 | 17445 ft | 354 kts | 246° |
| 2026-05-01 14:55 | -25.09541 | -48.52128 | 16935 ft | 350 kts | 246° |
| 2026-05-01 14:55 | -25.10608 | -48.54511 | 16438 ft | 346 kts | 246° |
| 2026-05-01 14:55 | -25.11670 | -48.56884 | 15927 ft | 343 kts | 246° |
| 2026-05-01 14:56 | -25.12719 | -48.59230 | 15411 ft | 340 kts | 246° |
| 2026-05-01 14:56 | -25.13758 | -48.61558 | 14904 ft | 339 kts | 245° |
| 2026-05-01 14:56 | -25.14808 | -48.63915 | 14439 ft | 345 kts | 245° |
| 2026-05-01 14:56 | -25.15866 | -48.66288 | 13911 ft | 344 kts | 246° |
| 2026-05-01 14:57 | -25.16912 | -48.68645 | 13384 ft | 341 kts | 245° |
| 2026-05-01 14:57 | -25.18963 | -48.73288 | 12388 ft | 334 kts | 246° |
| 2026-05-01 14:57 | -25.19987 | -48.75608 | 11894 ft | 331 kts | 245° |
| 2026-05-01 14:58 | -25.20966 | -48.77867 | 11421 ft | 328 kts | 248° |
| 2026-05-01 14:58 | -25.21645 | -48.80244 | 11172 ft | 321 kts | 261° |
| 2026-05-01 14:58 | -25.21907 | -48.82693 | 11178 ft | 326 kts | 266° |
| 2026-05-01 14:58 | -25.22022 | -48.85178 | 11191 ft | 326 kts | 268° |
| 2026-05-01 14:59 | -25.22111 | -48.87689 | 10974 ft | 328 kts | 268° |
| 2026-05-01 14:59 | -25.22214 | -48.90194 | 10941 ft | 323 kts | 268° |
| 2026-05-01 14:59 | -25.22333 | -48.92657 | 10952 ft | 326 kts | 268° |
| 2026-05-01 14:59 | -25.22469 | -48.95160 | 10957 ft | 325 kts | 267° |
| 2026-05-01 15:00 | -25.23200 | -49.00022 | 10635 ft | 312 kts | 250° |
| 2026-05-01 15:00 | -25.24067 | -49.02152 | 10542 ft | 299 kts | 245° |
| 2026-05-01 15:00 | -25.24997 | -49.04149 | 10424 ft | 285 kts | 244° |
| 2026-05-01 15:01 | -25.25883 | -49.06075 | 10248 ft | 276 kts | 245° |
| 2026-05-01 15:01 | -25.26712 | -49.07967 | 9878 ft | 275 kts | 246° |
| 2026-05-01 15:01 | -25.27520 | -49.09875 | 9490 ft | 275 kts | 246° |
| 2026-05-01 15:01 | -25.28323 | -49.11801 | 9114 ft | 273 kts | 246° |
| 2026-05-01 15:02 | -25.29104 | -49.13681 | 8786 ft | 271 kts | 246° |
| 2026-05-01 15:02 | -25.29622 | -49.14930 | 8574 ft | 269 kts | 247° |
| 2026-05-01 15:02 | -25.30655 | -49.17410 | 8266 ft | 260 kts | 246° |
| 2026-05-01 15:02 | -25.31404 | -49.19209 | 8121 ft | 251 kts | 247° |
| 2026-05-01 15:03 | -25.32109 | -49.20907 | 8000 ft | 241 kts | 247° |
| 2026-05-01 15:03 | -25.32803 | -49.22575 | 7892 ft | 232 kts | 247° |
| 2026-05-01 15:03 | -25.33577 | -49.24113 | 7722 ft | 228 kts | 236° |
| 2026-05-01 15:03 | -25.34664 | -49.25393 | 7387 ft | 232 kts | 224° |
| 2026-05-01 15:04 | -25.35886 | -49.26565 | 7083 ft | 232 kts | 224° |
| 2026-05-01 15:04 | -25.37076 | -49.27762 | 6788 ft | 230 kts | 226° |
| 2026-05-01 15:04 | -25.38227 | -49.28980 | 6516 ft | 228 kts | 225° |
| 2026-05-01 15:04 | -25.39481 | -49.30040 | 6322 ft | 225 kts | 209° |
| 2026-05-01 15:05 | -25.41017 | -49.30317 | 6081 ft | 226 kts | 170° |
| 2026-05-01 15:05 | -25.42399 | -49.29516 | 5719 ft | 229 kts | 134° |
| 2026-05-01 15:05 | -25.43152 | -49.28023 | 5402 ft | 224 kts | 102° |
| 2026-05-01 15:05 | -25.43520 | -49.26370 | 5156 ft | 216 kts | 111° |
| 2026-05-01 15:06 | -25.44423 | -49.25122 | 4887 ft | 203 kts | 146° |
| 2026-05-01 15:06 | -25.45663 | -49.24467 | 4643 ft | 199 kts | 155° |
| 2026-05-01 15:06 | -25.46893 | -49.23834 | 4386 ft | 188 kts | 152° |
| 2026-05-01 15:06 | -25.47955 | -49.23101 | 4174 ft | 170 kts | 137° |
| 2026-05-01 15:07 | -25.48698 | -49.22165 | 3937 ft | 156 kts | 125° |
| 2026-05-01 15:07 | -25.49435 | -49.21318 | 3760 ft | 154 kts | 136° |
| 2026-05-01 15:07 | -25.50206 | -49.20518 | 3602 ft | 152 kts | 133° |
| 2026-05-01 15:07 | -25.50976 | -49.19652 | 3396 ft | 156 kts | 132° |
| 2026-05-01 15:08 | -25.51736 | -49.18811 | 3204 ft | 154 kts | 134° |
| 2026-05-01 15:08 | -25.52491 | -49.17970 | 3006 ft | 152 kts | 132° |
| 2026-05-01 15:08 | -25.53180 | -49.17195 | 3007 ft | 155 kts | 134° |
| 2026-05-01 15:08 | -25.54038 | -49.16405 | 3584 ft | 165 kts | 138° |
| 2026-05-01 15:09 | -25.54975 | -49.15555 | 3962 ft | 196 kts | 136° |
| 2026-05-01 15:09 | -25.55992 | -49.14521 | 4419 ft | 187 kts | 145° |
| 2026-05-01 15:09 | -25.57128 | -49.13748 | 4400 ft | 188 kts | 148° |
| 2026-05-01 15:09 | -25.58278 | -49.13388 | 4889 ft | 170 kts | 186° |
| 2026-05-01 15:10 | -25.59299 | -49.13936 | 5304 ft | 173 kts | 232° |
| 2026-05-01 15:10 | -25.59706 | -49.16847 | 5314 ft | 216 kts | 279° |
| 2026-05-01 15:10 | -25.59460 | -49.18588 | 5741 ft | 237 kts | 277° |
| 2026-05-01 15:11 | -25.59438 | -49.20375 | 6016 ft | 224 kts | 268° |
| 2026-05-01 15:11 | -25.58741 | -49.23796 | 6809 ft | 253 kts | 311° |
| 2026-05-01 15:11 | -25.57451 | -49.25218 | 7226 ft | 266 kts | 315° |
| 2026-05-01 15:12 | -25.56163 | -49.26740 | 7471 ft | 273 kts | 310° |
| 2026-05-01 15:12 | -25.53839 | -49.30034 | 7470 ft | 260 kts | 307° |
| 2026-05-01 15:12 | -25.52782 | -49.31604 | 7474 ft | 243 kts | 306° |
| 2026-05-01 15:13 | -25.49971 | -49.35744 | 7470 ft | 216 kts | 308° |
| 2026-05-01 15:14 | -25.47477 | -49.37407 | 7497 ft | 230 kts | 358° |
| 2026-05-01 15:14 | -25.45885 | -49.37003 | 7273 ft | 236 kts | 24° |
| 2026-05-01 15:14 | -25.43402 | -49.34649 | 6633 ft | 237 kts | 43° |
| 2026-05-01 15:15 | -25.41634 | -49.31755 | 6215 ft | 225 kts | 77° |
| 2026-05-01 15:15 | -25.42093 | -49.28463 | 5588 ft | 206 kts | 101° |
| 2026-05-01 15:16 | -25.43622 | -49.26110 | 5104 ft | 182 kts | 143° |
| 2026-05-01 15:16 | -25.45809 | -49.24863 | 4657 ft | 175 kts | 154° |
| 2026-05-01 15:17 | -25.47719 | -49.23292 | 4242 ft | 165 kts | 128° |
| 2026-05-01 15:18 | -25.49938 | -49.20769 | 3623 ft | 148 kts | 132° |
| 2026-05-01 15:18 | -25.50690 | -49.19985 | 3472 ft | 146 kts | 134° |
| 2026-05-01 15:19 | -25.52854 | -49.17564 | 2999 ft | 128 kts | 133° |
| 2026-05-01 15:19 | -25.53535 | -49.16804 | 2999 ft | 39 kts | 135° |
| 2026-05-01 15:19 | -25.53625 | -49.16826 | 2999 ft | 17 kts | 270° |
| 2026-05-01 15:20 | -25.53668 | -49.17027 | 2999 ft | 10 kts | 228° |
| 2026-05-01 15:20 | -25.53702 | -49.17066 | 2999 ft | 2 kts | 225° |
| 2026-05-01 15:20 | -25.53705 | -49.17069 | 2999 ft | 0 kts | 225° |